KONL/ONL METAR and TAF weather

Enter ICAO airport designator
Station Type Date Time Source
KONL METAR 2024/02/26 17:15 UTC NOAA

KONL 261715Z AUTO 26024G30KT 10SM CLR 19/M05 A2945 RMK AO2 T01871054


Station Type Date Time Source
KONL Decoded METAR 2024/02/26 17:15 UTC NOAA

O'Neill / Baker Field, NE, United States (KONL) 42-28N 098-41W
Feb 26, 2024 - 12:15 PM EST / 2024.02.26 1715 UTC
Wind: from the W (260 degrees) at 28 MPH (24 KT) gusting to 35 MPH (30 KT):0
Visibility: 10 mile(s):0
Sky conditions: clear
Temperature: 65.7 F (18.7 C)
Dew Point: 22.3 F (-5.4 C)
Relative Humidity: 18%
Pressure (altimeter): 29.45 in. Hg (997 hPa)
ob: KONL 261715Z AUTO 26024G30KT 10SM CLR 19/M05 A2945 RMK AO2 T01871054
cycle: 17

Station Type Date Time Source
KONL TAF UTC NOAA

Error!

Example: see airport list